Ye Chi — VRFV6 — position and weather

sailwx.info

Track history (hours):
 
Tides and Currents Weather Stations Pressure Air Temp Water Temp Dewpoint Dewpoint Depression Visibility Wind Speed Wind Dir Waves Ship Positions

Ye Chi

Last reported at 2014-Oct-28 07:33 UTC. Time now 2014-Oct-31 04:08 UTC.
Position N 34°08' E 130°32'.

Length 187 m; draft 7.5 m.

Type: Ship (hazmat cat D). MMSI: 477621300.

Date/timePositionNaut miles runAvg speedWind from/ knotsBaromVisibWave heightAir tempDewpointWater temp
2014-Oct-28 07:33N 34°08' E 130°32'1413.6
2014-Oct-28 06:32N 34°03' E 130°48'436 8.6
2014-Oct-26 04:03N 34°60' E 139°32'813.7
2014-Oct-26 03:29N 35°04' E 139°40'1111.5
2014-Oct-26 02:33N 35°13' E 139°46'1212.1
2014-Oct-26 01:33N 35°25' E 139°44'6 5.9
2014-Oct-26 00:31N 35°31' E 139°46'0 0.0
2014-Oct-25 23:31N 35°31' E 139°46'0 0.0
2014-Oct-25 22:31N 35°31' E 139°46'0 0.0
2014-Oct-25 21:31N 35°31' E 139°46'0 0.0
2014-Oct-25 20:31N 35°31' E 139°46'0 0.0
2014-Oct-25 19:25N 35°31' E 139°46'0 0.0
2014-Oct-25 18:31N 35°31' E 139°46'0 0.0
2014-Oct-25 17:28N 35°31' E 139°46'0 0.1
2014-Oct-25 16:31N 35°31' E 139°46'0 0.0
2014-Oct-25 15:31N 35°31' E 139°46'0 0.0
2014-Oct-25 14:31N 35°31' E 139°46'0 0.0
2014-Oct-25 13:28N 35°31' E 139°46'0 0.0
2014-Oct-25 12:28N 35°31' E 139°46'0 0.0
2014-Oct-25 11:31N 35°31' E 139°46'0 0.0
2014-Oct-25 10:28N 35°31' E 139°46'0 0.0
2014-Oct-25 09:19N 35°31' E 139°46'0 0.0
2014-Oct-25 08:16N 35°31' E 139°46'0 0.0
2014-Oct-25 07:28N 35°31' E 139°46'0 0.0
2014-Oct-25 06:32N 35°31' E 139°46'3 2.7
2014-Oct-25 05:33N 35°30' E 139°49'11 7.4
2014-Oct-25 04:04N 35°32' E 140°03'4 0.2
2014-Oct-24 04:28N 35°34' E 139°58'0 0.1
2014-Oct-24 03:11N 35°34' E 139°58'0 0.0
2014-Oct-24 01:26N 35°34' E 139°58'0 0.0
2014-Oct-24 00:23N 35°34' E 139°58'0 0.1
2014-Oct-23 23:29N 35°34' E 139°58'0 0.0
2014-Oct-23 22:32N 35°34' E 139°58'0 0.0
2014-Oct-23 21:26N 35°34' E 139°58'0 0.0
2014-Oct-23 20:32N 35°34' E 139°58'0 0.0
2014-Oct-23 19:23N 35°34' E 139°58'0 0.0
2014-Oct-23 18:32N 35°34' E 139°58'0 0.0
2014-Oct-23 17:32N 35°34' E 139°58'0 0.1
2014-Oct-23 16:32N 35°34' E 139°58'0 0.0
2014-Oct-23 15:23N 35°34' E 139°58'0 0.0
2014-Oct-23 14:14N 35°34' E 139°58'0 0.0
2014-Oct-23 13:29N 35°34' E 139°58'0 0.0
2014-Oct-23 12:29N 35°34' E 139°58'0 0.1
2014-Oct-23 11:32N 35°34' E 139°58'0 0.0
2014-Oct-23 10:11N 35°34' E 139°58'0 0.0
2014-Oct-23 09:29N 35°34' E 139°58'0 0.0
2014-Oct-23 08:32N 35°34' E 139°58'0 0.0
2014-Oct-23 07:32N 35°34' E 139°58'0 0.0
2014-Oct-23 06:32N 35°34' E 139°58'0 0.0
2014-Oct-23 05:08N 35°34' E 139°58'0 0.1
2014-Oct-23 04:32N 35°34' E 139°58'0 0.0
2014-Oct-23 03:32N 35°34' E 139°58'0 0.0
2014-Oct-23 02:29N 35°34' E 139°58'0 0.0
2014-Oct-23 01:32N 35°34' E 139°58'0 0.0
2014-Oct-23 00:29N 35°34' E 139°58'0 0.0
2014-Oct-22 23:32N 35°34' E 139°58'0 0.0
2014-Oct-22 22:32N 35°34' E 139°58'0 0.0
2014-Oct-22 21:29N 35°34' E 139°58'0 0.0
2014-Oct-22 20:29N 35°34' E 139°58'0 0.0
2014-Oct-22 19:29N 35°34' E 139°58'0 0.1
2014-Oct-22 18:32N 35°34' E 139°58'0 0.0
2014-Oct-22 17:29N 35°34' E 139°58'0 0.0
2014-Oct-22 16:11N 35°34' E 139°58'0 0.0
2014-Oct-22 15:26N 35°34' E 139°58'0 0.0
2014-Oct-22 14:26N 35°34' E 139°58'0 0.0
2014-Oct-22 13:23N 35°34' E 139°58'0 0.0
2014-Oct-22 12:32N 35°34' E 139°58'0 0.0
2014-Oct-22 11:11N 35°34' E 139°58'0 0.0
2014-Oct-22 10:23N 35°34' E 139°58'0 0.0
2014-Oct-22 09:29N 35°34' E 139°58'0 0.0
2014-Oct-22 08:32N 35°34' E 139°58'0 0.0
2014-Oct-22 07:20N 35°34' E 139°58'0 0.1
2014-Oct-22 06:32N 35°34' E 139°58'0 0.0
2014-Oct-22 05:32N 35°34' E 139°58'0 0.0
2014-Oct-22 04:11N 35°34' E 139°58'0 0.1
2014-Oct-22 02:33N 35°34' E 139°58'9 9.4
2014-Oct-22 01:34N 35°27' E 139°50'1110.6
2014-Oct-22 00:34N 35°17' E 139°45'9 9.2
2014-Oct-21 23:34N 35°08' E 139°46'9 8.2
2014-Oct-21 22:28N 34°60' E 139°42'  
Track history (hours):
 
Tides and Currents Weather Stations Pressure Air Temp Water Temp Dewpoint Dewpoint Depression Visibility Wind Speed Wind Dir Waves Ship Positions

Ye Chi

Last reported at 2014-Oct-28 07:33 UTC. Time now 2014-Oct-31 04:08 UTC.
Position N 34°08' E 130°32'.

Length 187 m; draft 7.5 m.

Type: Ship (hazmat cat D). MMSI: 477621300.

Date/timePositionNaut miles runAvg speedWind from/ knotsBaromVisibWave heightAir tempDewpointWater temp
2014-Oct-28 07:33N 34°08' E 130°32'1413.6
2014-Oct-28 06:32N 34°03' E 130°48'436 8.6
2014-Oct-26 04:03N 34°60' E 139°32'813.7
2014-Oct-26 03:29N 35°04' E 139°40'1111.5
2014-Oct-26 02:33N 35°13' E 139°46'1212.1
2014-Oct-26 01:33N 35°25' E 139°44'6 5.9
2014-Oct-26 00:31N 35°31' E 139°46'0 0.0
2014-Oct-25 23:31N 35°31' E 139°46'0 0.0
2014-Oct-25 22:31N 35°31' E 139°46'0 0.0
2014-Oct-25 21:31N 35°31' E 139°46'0 0.0
2014-Oct-25 20:31N 35°31' E 139°46'0 0.0
2014-Oct-25 19:25N 35°31' E 139°46'0 0.0
2014-Oct-25 18:31N 35°31' E 139°46'0 0.0
2014-Oct-25 17:28N 35°31' E 139°46'0 0.1
2014-Oct-25 16:31N 35°31' E 139°46'0 0.0
2014-Oct-25 15:31N 35°31' E 139°46'0 0.0
2014-Oct-25 14:31N 35°31' E 139°46'0 0.0
2014-Oct-25 13:28N 35°31' E 139°46'0 0.0
2014-Oct-25 12:28N 35°31' E 139°46'0 0.0
2014-Oct-25 11:31N 35°31' E 139°46'0 0.0
2014-Oct-25 10:28N 35°31' E 139°46'0 0.0
2014-Oct-25 09:19N 35°31' E 139°46'0 0.0
2014-Oct-25 08:16N 35°31' E 139°46'0 0.0
2014-Oct-25 07:28N 35°31' E 139°46'0 0.0
2014-Oct-25 06:32N 35°31' E 139°46'3 2.7
2014-Oct-25 05:33N 35°30' E 139°49'11 7.4
2014-Oct-25 04:04N 35°32' E 140°03'4 0.2
2014-Oct-24 04:28N 35°34' E 139°58'0 0.1
2014-Oct-24 03:11N 35°34' E 139°58'0 0.0
2014-Oct-24 01:26N 35°34' E 139°58'0 0.0
2014-Oct-24 00:23N 35°34' E 139°58'0 0.1
2014-Oct-23 23:29N 35°34' E 139°58'0 0.0
2014-Oct-23 22:32N 35°34' E 139°58'0 0.0
2014-Oct-23 21:26N 35°34' E 139°58'0 0.0
2014-Oct-23 20:32N 35°34' E 139°58'0 0.0
2014-Oct-23 19:23N 35°34' E 139°58'0 0.0
2014-Oct-23 18:32N 35°34' E 139°58'0 0.0
2014-Oct-23 17:32N 35°34' E 139°58'0 0.1
2014-Oct-23 16:32N 35°34' E 139°58'0 0.0
2014-Oct-23 15:23N 35°34' E 139°58'0 0.0
2014-Oct-23 14:14N 35°34' E 139°58'0 0.0
2014-Oct-23 13:29N 35°34' E 139°58'0 0.0
2014-Oct-23 12:29N 35°34' E 139°58'0 0.1
2014-Oct-23 11:32N 35°34' E 139°58'0 0.0
2014-Oct-23 10:11N 35°34' E 139°58'0 0.0
2014-Oct-23 09:29N 35°34' E 139°58'0 0.0
2014-Oct-23 08:32N 35°34' E 139°58'0 0.0
2014-Oct-23 07:32N 35°34' E 139°58'0 0.0
2014-Oct-23 06:32N 35°34' E 139°58'0 0.0
2014-Oct-23 05:08N 35°34' E 139°58'0 0.1
2014-Oct-23 04:32N 35°34' E 139°58'0 0.0
2014-Oct-23 03:32N 35°34' E 139°58'0 0.0
2014-Oct-23 02:29N 35°34' E 139°58'0 0.0
2014-Oct-23 01:32N 35°34' E 139°58'0 0.0
2014-Oct-23 00:29N 35°34' E 139°58'0 0.0
2014-Oct-22 23:32N 35°34' E 139°58'0 0.0
2014-Oct-22 22:32N 35°34' E 139°58'0 0.0
2014-Oct-22 21:29N 35°34' E 139°58'0 0.0
2014-Oct-22 20:29N 35°34' E 139°58'0 0.0
2014-Oct-22 19:29N 35°34' E 139°58'0 0.1
2014-Oct-22 18:32N 35°34' E 139°58'0 0.0
2014-Oct-22 17:29N 35°34' E 139°58'0 0.0
2014-Oct-22 16:11N 35°34' E 139°58'0 0.0
2014-Oct-22 15:26N 35°34' E 139°58'0 0.0
2014-Oct-22 14:26N 35°34' E 139°58'0 0.0
2014-Oct-22 13:23N 35°34' E 139°58'0 0.0
2014-Oct-22 12:32N 35°34' E 139°58'0 0.0
2014-Oct-22 11:11N 35°34' E 139°58'0 0.0
2014-Oct-22 10:23N 35°34' E 139°58'0 0.0
2014-Oct-22 09:29N 35°34' E 139°58'0 0.0
2014-Oct-22 08:32N 35°34' E 139°58'0 0.0
2014-Oct-22 07:20N 35°34' E 139°58'0 0.1
2014-Oct-22 06:32N 35°34' E 139°58'0 0.0
2014-Oct-22 05:32N 35°34' E 139°58'0 0.0
2014-Oct-22 04:11N 35°34' E 139°58'0 0.1
2014-Oct-22 02:33N 35°34' E 139°58'9 9.4
2014-Oct-22 01:34N 35°27' E 139°50'1110.6
2014-Oct-22 00:34N 35°17' E 139°45'9 9.2
2014-Oct-21 23:34N 35°08' E 139°46'9 8.2
2014-Oct-21 22:28N 34°60' E 139°42'  

Dump ship's entire track history